Pilot Boat Dalmar I — HKOZ7 — position and weather

sailwx.info

Track history (hours):
 
Tides and Currents Weather Stations Pressure Air Temp Water Temp Dewpoint Dewpoint Depression Visibility Wind Speed Wind Dir Waves Ship Positions

Pilot Boat Dalmar I

Last reported at 2017-Nov-17 19:39 UTC. Time now 2017-Nov-23 17:11 UTC.
Position N 10°22' W 075°31'.

Length 10 m.

Type: Pilot. MMSI: 730151274.

Date/timePositionNaut miles runAvg speedWind from/ knotsBaromVisibWave heightAir tempDewpointWater temp
2017-Nov-17 19:39N 10°22' W 075°31'0 0.0
2017-Nov-17 19:24N 10°22' W 075°31'0 0.0
2017-Nov-17 18:57N 10°22' W 075°31'0 0.0
2017-Nov-17 18:30N 10°22' W 075°31'3 6.1
2017-Nov-17 18:00N 10°19' W 075°31'611.3
2017-Nov-17 17:30N 10°25' W 075°32'0 0.0
2017-Nov-17 17:00N 10°25' W 075°32'0 0.0
2017-Nov-17 16:24N 10°25' W 075°32'0 0.0
2017-Nov-17 16:00N 10°25' W 075°32'0 0.1
2017-Nov-17 15:24N 10°25' W 075°32'716.7
2017-Nov-17 15:00N 10°18' W 075°30'0 0.1
2017-Nov-17 14:30N 10°18' W 075°30'0 0.0
2017-Nov-17 13:59N 10°18' W 075°30'0 0.1
2017-Nov-17 13:29N 10°18' W 075°31'4 7.4
2017-Nov-17 13:00N 10°22' W 075°31'2 2.9
2017-Nov-17 12:10N 10°24' W 075°32'524.8
2017-Nov-17 11:59N 10°19' W 075°34'5 1.9
2017-Nov-17 09:24N 10°24' W 075°33'3 2.5
2017-Nov-17 08:04N 10°21' W 075°31'227.9
2017-Nov-17 07:59N 10°19' W 075°31'1 1.9
2017-Nov-17 07:29N 10°18' W 075°30'0 0.0
2017-Nov-17 06:59N 10°18' W 075°30'0 0.0
2017-Nov-17 06:29N 10°18' W 075°30'0 0.0
2017-Nov-17 05:59N 10°18' W 075°30'3 6.5
2017-Nov-17 05:30N 10°20' W 075°33'4 6.5
2017-Nov-17 04:55N 10°24' W 075°33'2 0.3
2017-Nov-16 22:24N 10°23' W 075°31'3 7.1
2017-Nov-16 21:59N 10°20' W 075°31'0 0.1
2017-Nov-16 21:30N 10°20' W 075°31'0 0.0
2017-Nov-16 20:56N 10°20' W 075°31'1 3.2
2017-Nov-16 20:30N 10°21' W 075°31'1 2.2
2017-Nov-16 20:00N 10°21' W 075°32'4 4.6
2017-Nov-16 19:07N 10°25' W 075°33'1 3.2
2017-Nov-16 18:57N 10°25' W 075°32'0 0.0
2017-Nov-16 18:27N 10°25' W 075°32'0 0.0
2017-Nov-16 18:00N 10°25' W 075°32'4 0.9
2017-Nov-16 13:46N 10°21' W 075°32'3 5.6
2017-Nov-16 13:13N 10°19' W 075°35'417.5
2017-Nov-16 12:59N 10°18' W 075°30'4 7.2
2017-Nov-16 12:27N 10°22' W 075°31'3 2.1
2017-Nov-16 10:59N 10°20' W 075°33'2 0.5
2017-Nov-16 07:21N 10°19' W 075°35'0 0.0
2017-Nov-16 06:15N 10°19' W 075°35'0 0.0
2017-Nov-16 06:00N 10°19' W 075°35'5 0.7
2017-Nov-15 22:53N 10°22' W 075°31'3 8.5
2017-Nov-15 22:30N 10°19' W 075°31'0 0.0
2017-Nov-15 22:00N 10°19' W 075°31'2 1.3
2017-Nov-15 20:35N 10°20' W 075°33'218.5
2017-Nov-15 20:29N 10°19' W 075°35'4 0.9
2017-Nov-15 15:25N 10°21' W 075°30'1 2.4
2017-Nov-15 14:51N 10°20' W 075°31'3 1.4
2017-Nov-15 12:51N 10°22' W 075°31'1 1.1
2017-Nov-15 12:19N 10°23' W 075°31'  
2017-Nov-11 23:44N 10°19' W 075°31'3 0.8
2017-Nov-11 19:48N 10°23' W 075°32'2 1.3
2017-Nov-11 18:13N 10°25' W 075°32'0 0.0
2017-Nov-11 17:55N 10°25' W 075°32'1 2.8
2017-Nov-11 17:30N 10°24' W 075°32'611.7
2017-Nov-11 16:59N 10°17' W 075°32'0 0.0
2017-Nov-11 16:23N 10°17' W 075°32'0 0.0
2017-Nov-11 15:59N 10°17' W 075°32'0 0.9
2017-Nov-11 15:29N 10°17' W 075°33'0 0.0
2017-Nov-11 14:59N 10°17' W 075°33'1 2.4
2017-Nov-11 14:29N 10°18' W 075°34'5 7.2
2017-Nov-11 13:47N 10°23' W 075°32'1 4.7
2017-Nov-11 13:29N 10°24' W 075°33'3 6.6
2017-Nov-11 13:00N 10°22' W 075°31'3 2.9
2017-Nov-11 12:06N 10°24' W 075°32'1 2.1
2017-Nov-11 11:45N 10°24' W 075°32'5 0.9
2017-Nov-11 05:50N 10°20' W 075°34'4 4.4
2017-Nov-11 04:56N 10°22' W 075°31'3 0.6
2017-Nov-10 23:54N 10°20' W 075°33'1 2.7
2017-Nov-10 23:29N 10°19' W 075°32'1 3.0
2017-Nov-10 23:00N 10°20' W 075°31'0 0.1
2017-Nov-10 22:30N 10°20' W 075°31'5 1.8
2017-Nov-10 19:40N 10°25' W 075°32'0 0.0
2017-Nov-10 19:22N 10°25' W 075°32'5 0.2
2017-Nov-09 13:09N 10°20' W 075°31'0 0.4
2017-Nov-09 12:51N 10°20' W 075°31'0 0.3
2017-Nov-09 12:29N 10°20' W 075°31'0 0.6
2017-Nov-09 11:57N 10°20' W 075°31'0 0.0
2017-Nov-09 11:30N 10°20' W 075°31'3 0.6
2017-Nov-09 06:19N 10°19' W 075°34'1 1.6
2017-Nov-09 05:34N 10°20' W 075°33'0 5.6
2017-Nov-09 05:30N 10°20' W 075°33'2 0.3
2017-Nov-08 23:51N 10°21' W 075°31'2 0.8
2017-Nov-08 21:26N 10°22' W 075°31'0 0.1
2017-Nov-08 15:27N 10°22' W 075°31'0 0.0
2017-Nov-08 15:00N 10°22' W 075°31'0 0.0
2017-Nov-08 13:49N 10°22' W 075°31'0 0.0
2017-Nov-08 13:04N 10°22' W 075°31'0 0.0
2017-Nov-08 12:55N 10°22' W 075°31'0 0.0
2017-Nov-08 12:30N 10°22' W 075°31'3 2.1
2017-Nov-08 11:18N 10°24' W 075°33'512.7
2017-Nov-08 10:55N 10°19' W 075°35'0 0.0
2017-Nov-08 10:07N 10°19' W 075°35'0 0.0
2017-Nov-08 09:58N 10°19' W 075°35'0 0.0
2017-Nov-08 09:27N 10°19' W 075°35'3 0.4
2017-Nov-08 01:40N 10°21' W 075°32'313.6
2017-Nov-08 01:26N 10°19' W 075°35'3 2.2
2017-Nov-08 00:12N 10°19' W 075°32'2 8.5
2017-Nov-08 00:00N 10°19' W 075°33'2 3.1
2017-Nov-07 23:30N 10°17' W 075°32'0 0.4
2017-Nov-07 22:58N 10°17' W 075°33'0 0.4
2017-Nov-07 22:30N 10°17' W 075°32'7 6.6
2017-Nov-07 21:23N 10°25' W 075°32'0 0.1
2017-Nov-07 20:42N 10°25' W 075°32'1 2.0
2017-Nov-07 20:20N 10°24' W 075°33'411.5
2017-Nov-07 19:57N 10°21' W 075°30'  
Track history (hours):
 
Tides and Currents Weather Stations Pressure Air Temp Water Temp Dewpoint Dewpoint Depression Visibility Wind Speed Wind Dir Waves Ship Positions

Pilot Boat Dalmar I

Last reported at 2017-Nov-17 19:39 UTC. Time now 2017-Nov-23 17:11 UTC.
Position N 10°22' W 075°31'.

Length 10 m.

Type: Pilot. MMSI: 730151274.

Date/timePositionNaut miles runAvg speedWind from/ knotsBaromVisibWave heightAir tempDewpointWater temp
2017-Nov-17 19:39N 10°22' W 075°31'0 0.0
2017-Nov-17 19:24N 10°22' W 075°31'0 0.0
2017-Nov-17 18:57N 10°22' W 075°31'0 0.0
2017-Nov-17 18:30N 10°22' W 075°31'3 6.1
2017-Nov-17 18:00N 10°19' W 075°31'611.3
2017-Nov-17 17:30N 10°25' W 075°32'0 0.0
2017-Nov-17 17:00N 10°25' W 075°32'0 0.0
2017-Nov-17 16:24N 10°25' W 075°32'0 0.0
2017-Nov-17 16:00N 10°25' W 075°32'0 0.1
2017-Nov-17 15:24N 10°25' W 075°32'716.7
2017-Nov-17 15:00N 10°18' W 075°30'0 0.1
2017-Nov-17 14:30N 10°18' W 075°30'0 0.0
2017-Nov-17 13:59N 10°18' W 075°30'0 0.1
2017-Nov-17 13:29N 10°18' W 075°31'4 7.4
2017-Nov-17 13:00N 10°22' W 075°31'2 2.9
2017-Nov-17 12:10N 10°24' W 075°32'524.8
2017-Nov-17 11:59N 10°19' W 075°34'5 1.9
2017-Nov-17 09:24N 10°24' W 075°33'3 2.5
2017-Nov-17 08:04N 10°21' W 075°31'227.9
2017-Nov-17 07:59N 10°19' W 075°31'1 1.9
2017-Nov-17 07:29N 10°18' W 075°30'0 0.0
2017-Nov-17 06:59N 10°18' W 075°30'0 0.0
2017-Nov-17 06:29N 10°18' W 075°30'0 0.0
2017-Nov-17 05:59N 10°18' W 075°30'3 6.5
2017-Nov-17 05:30N 10°20' W 075°33'4 6.5
2017-Nov-17 04:55N 10°24' W 075°33'2 0.3
2017-Nov-16 22:24N 10°23' W 075°31'3 7.1
2017-Nov-16 21:59N 10°20' W 075°31'0 0.1
2017-Nov-16 21:30N 10°20' W 075°31'0 0.0
2017-Nov-16 20:56N 10°20' W 075°31'1 3.2
2017-Nov-16 20:30N 10°21' W 075°31'1 2.2
2017-Nov-16 20:00N 10°21' W 075°32'4 4.6
2017-Nov-16 19:07N 10°25' W 075°33'1 3.2
2017-Nov-16 18:57N 10°25' W 075°32'0 0.0
2017-Nov-16 18:27N 10°25' W 075°32'0 0.0
2017-Nov-16 18:00N 10°25' W 075°32'4 0.9
2017-Nov-16 13:46N 10°21' W 075°32'3 5.6
2017-Nov-16 13:13N 10°19' W 075°35'417.5
2017-Nov-16 12:59N 10°18' W 075°30'4 7.2
2017-Nov-16 12:27N 10°22' W 075°31'3 2.1
2017-Nov-16 10:59N 10°20' W 075°33'2 0.5
2017-Nov-16 07:21N 10°19' W 075°35'0 0.0
2017-Nov-16 06:15N 10°19' W 075°35'0 0.0
2017-Nov-16 06:00N 10°19' W 075°35'5 0.7
2017-Nov-15 22:53N 10°22' W 075°31'3 8.5
2017-Nov-15 22:30N 10°19' W 075°31'0 0.0
2017-Nov-15 22:00N 10°19' W 075°31'2 1.3
2017-Nov-15 20:35N 10°20' W 075°33'218.5
2017-Nov-15 20:29N 10°19' W 075°35'4 0.9
2017-Nov-15 15:25N 10°21' W 075°30'1 2.4
2017-Nov-15 14:51N 10°20' W 075°31'3 1.4
2017-Nov-15 12:51N 10°22' W 075°31'1 1.1
2017-Nov-15 12:19N 10°23' W 075°31'  
2017-Nov-11 23:44N 10°19' W 075°31'3 0.8
2017-Nov-11 19:48N 10°23' W 075°32'2 1.3
2017-Nov-11 18:13N 10°25' W 075°32'0 0.0
2017-Nov-11 17:55N 10°25' W 075°32'1 2.8
2017-Nov-11 17:30N 10°24' W 075°32'611.7
2017-Nov-11 16:59N 10°17' W 075°32'0 0.0
2017-Nov-11 16:23N 10°17' W 075°32'0 0.0
2017-Nov-11 15:59N 10°17' W 075°32'0 0.9
2017-Nov-11 15:29N 10°17' W 075°33'0 0.0
2017-Nov-11 14:59N 10°17' W 075°33'1 2.4
2017-Nov-11 14:29N 10°18' W 075°34'5 7.2
2017-Nov-11 13:47N 10°23' W 075°32'1 4.7
2017-Nov-11 13:29N 10°24' W 075°33'3 6.6
2017-Nov-11 13:00N 10°22' W 075°31'3 2.9
2017-Nov-11 12:06N 10°24' W 075°32'1 2.1
2017-Nov-11 11:45N 10°24' W 075°32'5 0.9
2017-Nov-11 05:50N 10°20' W 075°34'4 4.4
2017-Nov-11 04:56N 10°22' W 075°31'3 0.6
2017-Nov-10 23:54N 10°20' W 075°33'1 2.7
2017-Nov-10 23:29N 10°19' W 075°32'1 3.0
2017-Nov-10 23:00N 10°20' W 075°31'0 0.1
2017-Nov-10 22:30N 10°20' W 075°31'5 1.8
2017-Nov-10 19:40N 10°25' W 075°32'0 0.0
2017-Nov-10 19:22N 10°25' W 075°32'5 0.2
2017-Nov-09 13:09N 10°20' W 075°31'0 0.4
2017-Nov-09 12:51N 10°20' W 075°31'0 0.3
2017-Nov-09 12:29N 10°20' W 075°31'0 0.6
2017-Nov-09 11:57N 10°20' W 075°31'0 0.0
2017-Nov-09 11:30N 10°20' W 075°31'3 0.6
2017-Nov-09 06:19N 10°19' W 075°34'1 1.6
2017-Nov-09 05:34N 10°20' W 075°33'0 5.6
2017-Nov-09 05:30N 10°20' W 075°33'2 0.3
2017-Nov-08 23:51N 10°21' W 075°31'2 0.8
2017-Nov-08 21:26N 10°22' W 075°31'0 0.1
2017-Nov-08 15:27N 10°22' W 075°31'0 0.0
2017-Nov-08 15:00N 10°22' W 075°31'0 0.0
2017-Nov-08 13:49N 10°22' W 075°31'0 0.0
2017-Nov-08 13:04N 10°22' W 075°31'0 0.0
2017-Nov-08 12:55N 10°22' W 075°31'0 0.0
2017-Nov-08 12:30N 10°22' W 075°31'3 2.1
2017-Nov-08 11:18N 10°24' W 075°33'512.7
2017-Nov-08 10:55N 10°19' W 075°35'0 0.0
2017-Nov-08 10:07N 10°19' W 075°35'0 0.0
2017-Nov-08 09:58N 10°19' W 075°35'0 0.0
2017-Nov-08 09:27N 10°19' W 075°35'3 0.4
2017-Nov-08 01:40N 10°21' W 075°32'313.6
2017-Nov-08 01:26N 10°19' W 075°35'3 2.2
2017-Nov-08 00:12N 10°19' W 075°32'2 8.5
2017-Nov-08 00:00N 10°19' W 075°33'2 3.1
2017-Nov-07 23:30N 10°17' W 075°32'0 0.4
2017-Nov-07 22:58N 10°17' W 075°33'0 0.4
2017-Nov-07 22:30N 10°17' W 075°32'7 6.6
2017-Nov-07 21:23N 10°25' W 075°32'0 0.1
2017-Nov-07 20:42N 10°25' W 075°32'1 2.0
2017-Nov-07 20:20N 10°24' W 075°33'411.5
2017-Nov-07 19:57N 10°21' W 075°30'  

Dump ship's entire track history